Time;durP1;ratioP1;P1;durP2;ratioP2;P2;SDS_P1;SDS_P2;PMS_P1;PMS_P2;Temp;Humidity;BMP_temperature;BMP_pressure;BME280_temperature;BME280_humidity;BME280_pressure;Samples;Min_cycle;Max_cycle;Signal;HPM_P1;HPM_P2
2023/03/12 00:00:14;;;;;;;;;;;;;;;2.56;70.81;101211.72;5040236;28;19971;-52
2023/03/12 00:02:39;;;;;;;;;;;;;;;2.57;70.36;101216.00;5041716;28;19928;-52
2023/03/12 00:05:05;;;;;;;;;;;;;;;2.57;70.68;101205.84;5045314;28;19921;-56
2023/03/12 00:07:30;;;;;;;;;;;;;;;2.59;70.58;101208.47;5043591;28;20078;-56
2023/03/12 00:09:55;;;;;;;;;;;;;;;2.58;70.94;101205.06;5044842;28;20076;-56
2023/03/12 00:12:20;;;;;;;;;;;;;;;2.58;70.82;101199.09;5044071;28;19925;-56
2023/03/12 00:14:46;;;;;;;;;;;;;;;2.57;70.84;101198.22;5044908;28;20322;-57
2023/03/12 00:17:11;;;;;;;;;;;;;;;2.56;71.02;101193.06;5042816;28;20070;-57
2023/03/12 00:19:36;;;;;;;;;;;;;;;2.56;71.34;101195.59;5045125;28;19932;-57
2023/03/12 00:22:01;;;;;;;;;;;;;;;2.54;71.59;101187.84;5046280;28;19925;-57
2023/03/12 00:24:27;;;;;;;;;;;;;;;2.52;71.47;101184.34;5044121;28;20519;-56
2023/03/12 00:26:52;;;;;;;;;;;;;;;2.49;71.40;101174.03;5026653;28;19929;-59
2023/03/12 00:29:17;;;;;;;;;;;;;;;2.46;71.52;101166.19;5049951;28;19916;-57
2023/03/12 00:31:42;;;;;;;;;;;;;;;2.45;71.98;101169.50;5051364;28;19921;-56
2023/03/12 00:34:08;;;;;;;;;;;;;;;2.44;71.98;101167.75;5051069;28;19927;-57
2023/03/12 00:36:33;;;;;;;;;;;;;;;2.45;72.04;101172.03;5051272;28;19952;-57
2023/03/12 00:38:59;;;;;;;;;;;;;;;2.47;72.05;101170.47;5052268;28;19921;-57
2023/03/12 00:41:25;;;;;;;;;;;;;;;2.48;72.13;101162.06;5054361;28;19949;-57
2023/03/12 00:43:50;;;;;;;;;;;;;;;2.48;72.18;101161.19;5048075;28;19921;-57
2023/03/12 00:46:16;;;;;;;;;;;;;;;2.48;72.03;101157.00;5050325;28;19921;-56
2023/03/12 00:48:41;;;;;;;;;;;;;;;2.48;72.21;101169.69;5058118;28;19932;-56
2023/03/12 00:51:06;;;;;;;;;;;;;;;2.48;72.46;101162.06;5055259;28;20301;-56
2023/03/12 00:53:32;;;;;;;;;;;;;;;2.50;72.39;101154.59;5052973;28;19925;-57
2023/03/12 00:55:57;;;;;;;;;;;;;;;2.49;72.53;101153.72;5054759;28;19978;-60
2023/03/12 00:58:22;;;;;;;;;;;;;;;2.51;72.48;101154.69;5054526;28;19966;-58
2023/03/12 01:00:47;;;;;;;;;;;;;;;2.50;72.40;101145.31;5052251;28;20059;-60
2023/03/12 01:03:13;;;;;;;;;;;;;;;2.50;72.37;101152.03;5052133;28;19975;-56
2023/03/12 01:05:39;;;;;;;;;;;;;;;2.51;72.58;101143.66;5049208;28;20379;-58
2023/03/12 01:08:05;;;;;;;;;;;;;;;2.52;73.09;101135.25;5048693;28;20039;-56
2023/03/12 01:10:31;;;;;;;;;;;;;;;2.50;72.65;101135.16;5050954;28;19921;-56
2023/03/12 01:12:56;;;;;;;;;;;;;;;2.49;72.80;101132.50;5057347;28;20266;-57
2023/03/12 01:15:21;;;;;;;;;;;;;;;2.49;72.87;101122.34;5047922;28;19928;-57
2023/03/12 01:17:47;;;;;;;;;;;;;;;2.49;72.61;101128.31;5052268;28;19974;-56
2023/03/12 01:20:13;;;;;;;;;;;;;;;2.48;72.47;101131.63;5050333;28;19917;-56
2023/03/12 01:22:38;;;;;;;;;;;;;;;2.48;72.51;101141.78;5051584;28;19959;-57
2023/03/12 01:25:03;;;;;;;;;;;;;;;2.51;72.43;101129.28;5050396;28;19924;-56
2023/03/12 01:27:28;;;;;;;;;;;;;;;2.50;72.71;101126.66;5051033;28;19917;-57
2023/03/12 01:29:54;;;;;;;;;;;;;;;2.50;72.96;101127.53;5049635;28;19974;-57
2023/03/12 01:32:20;;;;;;;;;;;;;;;2.52;73.11;101132.72;5050762;28;20369;-57
2023/03/12 01:34:45;;;;;;;;;;;;;;;2.52;73.07;101123.44;5050819;28;19998;-56
2023/03/12 01:37:10;;;;;;;;;;;;;;;2.55;72.88;101125.28;5050485;28;19964;-56
2023/03/12 01:39:36;;;;;;;;;;;;;;;2.56;72.63;101124.53;5045036;28;19968;-56
2023/03/12 01:42:01;;;;;;;;;;;;;;;2.57;72.63;101127.16;5047869;28;19925;-56
2023/03/12 01:44:26;;;;;;;;;;;;;;;2.59;73.04;101125.56;5047978;28;19919;-56
2023/03/12 01:46:52;;;;;;;;;;;;;;;2.58;72.99;101106.06;5049632;28;20340;-56
2023/03/12 01:49:25;;;;;;;;;;;;;;;2.58;72.82;101095.03;5050231;28;19929;-56
2023/03/12 01:51:53;;;;;;;;;;;;;;;2.56;72.85;101092.41;5055511;28;19935;-56
2023/03/12 01:54:21;;;;;;;;;;;;;;;2.55;72.81;101095.72;5054378;28;20404;-57
2023/03/12 01:56:47;;;;;;;;;;;;;;;2.56;73.22;101089.84;5049434;28;20046;-56
2023/03/12 01:59:15;;;;;;;;;;;;;;;2.56;73.22;101094.06;5046746;28;19924;-56
2023/03/12 02:01:42;;;;;;;;;;;;;;;2.55;73.15;101092.28;5053405;28;20565;-57
2023/03/12 02:04:07;;;;;;;;;;;;;;;2.55;73.00;101095.72;5051942;28;19928;-58
2023/03/12 02:06:44;;;;;;;;;;;;;;;2.54;72.75;101086.31;5049985;28;19928;-57
2023/03/12 02:09:11;;;;;;;;;;;;;;;2.54;73.41;101091.41;5048495;28;20605;-59
2023/03/12 02:11:36;;;;;;;;;;;;;;;2.56;73.48;101078.81;5045901;28;20381;-57
2023/03/12 02:14:02;;;;;;;;;;;;;;;2.56;73.16;101077.16;5052499;28;19921;-57
2023/03/12 02:16:28;;;;;;;;;;;;;;;2.57;73.38;101084.00;5053795;28;20393;-57
2023/03/12 02:18:54;;;;;;;;;;;;;;;2.56;73.33;101082.25;5053375;28;19917;-58
2023/03/12 02:21:22;;;;;;;;;;;;;;;2.56;73.38;101063.59;5041545;28;19921;-56
2023/03/12 02:23:47;;;;;;;;;;;;;;;2.56;73.62;101059.41;5048975;28;20003;-56
2023/03/12 02:26:13;;;;;;;;;;;;;;;2.56;73.65;101056.84;5048404;28;20004;-56
2023/03/12 02:28:42;;;;;;;;;;;;;;;2.57;73.64;101048.44;5048335;28;19928;-57
2023/03/12 02:31:09;;;;;;;;;;;;;;;2.58;73.73;101046.78;5048164;28;19917;-56
2023/03/12 02:33:35;;;;;;;;;;;;;;;2.59;73.49;101051.97;5048816;28;20274;-56
2023/03/12 02:36:00;;;;;;;;;;;;;;;2.61;73.66;101052.06;5049440;28;19924;-56
2023/03/12 02:38:25;;;;;;;;;;;;;;;2.61;74.07;101052.94;5048031;28;20012;-57
2023/03/12 02:40:50;;;;;;;;;;;;;;;2.62;73.70;101049.63;5049211;28;19972;-56
2023/03/12 02:43:17;;;;;;;;;;;;;;;2.61;73.71;101058.03;5049505;28;19921;-57
2023/03/12 02:45:42;;;;;;;;;;;;;;;2.63;73.73;101046.28;5050083;28;20348;-57
2023/03/12 02:48:08;;;;;;;;;;;;;;;2.61;73.63;101054.63;5049680;28;19921;-58
2023/03/12 02:50:33;;;;;;;;;;;;;;;2.61;73.55;101057.16;5048970;28;20326;-58
2023/03/12 02:52:59;;;;;;;;;;;;;;;2.60;73.88;101043.56;5054041;28;19929;-57
2023/03/12 02:55:24;;;;;;;;;;;;;;;2.59;73.77;101044.34;5051517;28;20004;-56
2023/03/12 02:57:49;;;;;;;;;;;;;;;2.60;74.04;101040.13;5051534;28;19963;-56
2023/03/12 03:00:15;;;;;;;;;;;;;;;2.59;73.76;101026.56;5036175;28;19920;-56
2023/03/12 03:02:41;;;;;;;;;;;;;;;2.58;74.02;101026.47;5049841;28;19916;-56
2023/03/12 03:05:06;;;;;;;;;;;;;;;2.56;74.40;101025.53;5055228;28;19921;-57
2023/03/12 03:07:32;;;;;;;;;;;;;;;2.54;73.98;101022.84;5050938;28;19917;-57
2023/03/12 03:10:02;;;;;;;;;;;;;;;2.54;74.44;101019.44;5050309;28;19924;-57
2023/03/12 03:12:28;;;;;;;;;;;;;;;2.53;74.45;101030.38;5046271;28;19923;-57
2023/03/12 03:14:53;;;;;;;;;;;;;;;2.53;74.48;101030.38;5055663;28;19932;-56
2023/03/12 03:17:18;;;;;;;;;;;;;;;2.52;74.62;101032.03;5053471;28;19925;-57
2023/03/12 03:19:44;;;;;;;;;;;;;;;2.52;75.31;101037.13;5056522;28;19936;-57
2023/03/12 03:22:09;;;;;;;;;;;;;;;2.51;75.49;101032.84;5046456;28;19927;-57
2023/03/12 03:24:35;;;;;;;;;;;;;;;2.50;76.19;101032.75;5047373;28;19931;-57
2023/03/12 03:27:00;;;;;;;;;;;;;;;2.51;76.38;101032.84;5048822;28;19966;-57
2023/03/12 03:29:25;;;;;;;;;;;;;;;2.51;76.34;101031.97;5048532;28;19974;-57
2023/03/12 03:31:50;;;;;;;;;;;;;;;2.50;76.58;101028.56;5047121;28;19927;-57
2023/03/12 03:34:16;;;;;;;;;;;;;;;2.51;76.78;101025.22;5048833;28;19966;-57
2023/03/12 03:36:41;;;;;;;;;;;;;;;2.52;76.86;101032.03;5048791;28;19925;-57
2023/03/12 03:39:07;;;;;;;;;;;;;;;2.52;77.35;101026.97;5048208;28;19925;-57
2023/03/12 03:41:32;;;;;;;;;;;;;;;2.52;78.16;101018.47;5047437;28;20002;-56
2023/03/12 03:43:57;;;;;;;;;;;;;;;2.51;78.59;101020.16;5047383;28;19920;-56
2023/03/12 03:46:23;;;;;;;;;;;;;;;2.54;79.05;101014.38;5049140;28;19939;-57
2023/03/12 03:48:49;;;;;;;;;;;;;;;2.55;79.73;101009.41;5048333;28;19917;-57
2023/03/12 03:51:15;;;;;;;;;;;;;;;2.57;80.28;101005.31;5045129;28;19989;-57
2023/03/12 03:53:40;;;;;;;;;;;;;;;2.58;80.21;101001.97;5047072;28;19913;-56
2023/03/12 03:56:06;;;;;;;;;;;;;;;2.58;81.43;100990.94;5042277;28;19929;-57
2023/03/12 03:58:32;;;;;;;;;;;;;;;2.61;81.47;100996.22;5050509;28;20390;-57
2023/03/12 04:00:57;;;;;;;;;;;;;;;2.60;81.89;100990.25;5053175;28;19927;-58
2023/03/12 04:03:22;;;;;;;;;;;;;;;2.61;82.22;100986.94;5052869;28;19927;-57
2023/03/12 04:05:53;;;;;;;;;;;;;;;2.62;82.11;100976.00;5053451;28;19974;-57
2023/03/12 04:08:18;;;;;;;;;;;;;;;2.64;82.20;100976.97;5052700;28;19928;-56
2023/03/12 04:10:43;;;;;;;;;;;;;;;2.66;82.68;100974.50;5057571;28;20313;-56
2023/03/12 04:13:08;;;;;;;;;;;;;;;2.65;82.74;100963.47;5054291;28;20301;-57
2023/03/12 04:15:33;;;;;;;;;;;;;;;2.67;82.87;100961.94;5052577;28;20011;-57
2023/03/12 04:17:59;;;;;;;;;;;;;;;2.67;83.02;100949.25;5054911;28;19998;-57
2023/03/12 04:20:24;;;;;;;;;;;;;;;2.67;83.13;100946.69;5061774;28;19952;-58
2023/03/12 04:22:49;;;;;;;;;;;;;;;2.68;82.92;100953.53;5049957;28;19921;-57
2023/03/12 04:25:14;;;;;;;;;;;;;;;2.69;83.07;100941.72;5058117;28;19935;-61
2023/03/12 04:27:40;;;;;;;;;;;;;;;2.67;83.21;100928.94;5055617;28;20293;-57
2023/03/12 04:30:05;;;;;;;;;;;;;;;2.68;83.17;100928.13;5058341;28;19974;-57
2023/03/12 04:32:30;;;;;;;;;;;;;;;2.67;83.04;100928.94;5049278;28;20298;-57
2023/03/12 04:34:56;;;;;;;;;;;;;;;2.67;83.25;100925.50;5053303;28;20019;-58
2023/03/12 04:37:21;;;;;;;;;;;;;;;2.66;83.33;100927.16;5053803;28;19927;-60
2023/03/12 04:39:46;;;;;;;;;;;;;;;2.64;83.22;100918.56;5052577;28;20401;-61
2023/03/12 04:42:12;;;;;;;;;;;;;;;2.63;82.78;100914.28;5048987;28;19925;-58
2023/03/12 04:44:38;;;;;;;;;;;;;;;2.61;83.03;100913.31;5031593;28;19935;-57
2023/03/12 04:47:04;;;;;;;;;;;;;;;2.60;83.02;100923.34;5047563;28;19999;-57
2023/03/12 04:49:29;;;;;;;;;;;;;;;2.60;83.18;100923.34;5049675;28;20008;-57
2023/03/12 04:51:54;;;;;;;;;;;;;;;2.59;82.89;100917.41;5049130;28;19924;-56
2023/03/12 04:54:20;;;;;;;;;;;;;;;2.60;82.85;100906.47;5048179;28;19943;-57
2023/03/12 04:56:45;;;;;;;;;;;;;;;2.59;83.37;100914.00;5047827;28;19933;-57
2023/03/12 04:59:11;;;;;;;;;;;;;;;2.57;83.33;100911.38;5053499;28;19922;-56
2023/03/12 05:01:36;;;;;;;;;;;;;;;2.58;83.25;100910.59;5056190;28;20435;-56
2023/03/12 05:04:02;;;;;;;;;;;;;;;2.59;83.44;100907.25;5053239;28;20016;-57
2023/03/12 05:06:27;;;;;;;;;;;;;;;2.60;83.51;100896.31;5051267;28;19974;-57
2023/03/12 05:08:52;;;;;;;;;;;;;;;2.58;83.39;100891.94;5052911;28;19942;-61
2023/03/12 05:11:18;;;;;;;;;;;;;;;2.58;83.49;100885.19;5050428;28;19931;-57
2023/03/12 05:13:43;;;;;;;;;;;;;;;2.59;83.70;100881.00;5045951;28;19924;-57
2023/03/12 05:16:09;;;;;;;;;;;;;;;2.59;83.66;100874.25;5052610;28;20429;-57
2023/03/12 05:18:34;;;;;;;;;;;;;;;2.62;84.00;100869.38;5055872;28;19920;-57
2023/03/12 05:21:01;;;;;;;;;;;;;;;2.60;84.12;100868.38;5052308;28;19917;-57
2023/03/12 05:23:27;;;;;;;;;;;;;;;2.60;84.22;100878.53;5049918;28;20340;-57
2023/03/12 05:25:52;;;;;;;;;;;;;;;2.59;84.23;100868.31;5053559;28;19928;-57
2023/03/12 05:28:19;;;;;;;;;;;;;;;2.59;84.08;100861.56;5049460;28;20019;-57
2023/03/12 05:30:44;;;;;;;;;;;;;;;2.59;85.09;100855.59;5033393;28;19949;-57
2023/03/12 05:33:09;;;;;;;;;;;;;;;2.57;85.55;100870.75;5032464;28;19951;-57
2023/03/12 05:35:35;;;;;;;;;;;;;;;2.57;85.73;100862.28;5050778;28;19928;-57
2023/03/12 05:38:00;;;;;;;;;;;;;;;2.57;86.58;100853.00;5048050;28;19928;-57
2023/03/12 05:40:25;;;;;;;;;;;;;;;2.56;86.96;100863.06;5049565;28;19920;-57
2023/03/12 05:42:51;;;;;;;;;;;;;;;2.56;87.56;100870.69;5049454;28;19928;-57
2023/03/12 05:45:18;;;;;;;;;;;;;;;2.55;88.70;100873.97;5051053;28;20286;-57
2023/03/12 05:47:43;;;;;;;;;;;;;;;2.55;89.37;100863.81;5051457;28;19920;-57
2023/03/12 05:50:10;;;;;;;;;;;;;;;2.54;89.92;100855.31;5049954;28;19952;-57
2023/03/12 05:52:35;;;;;;;;;;;;;;;2.56;90.37;100856.31;5050152;28;19925;-57
2023/03/12 05:55:00;;;;;;;;;;;;;;;2.59;91.25;100855.59;5050463;28;20412;-62
2023/03/12 05:57:26;;;;;;;;;;;;;;;2.59;91.69;100861.56;5050696;28;19917;-56
2023/03/12 05:59:51;;;;;;;;;;;;;;;2.58;92.06;100857.28;5053595;28;19927;-59
2023/03/12 06:02:16;;;;;;;;;;;;;;;2.59;92.79;100856.47;5053857;28;20313;-56
2023/03/12 06:04:41;;;;;;;;;;;;;;;2.57;93.19;100858.06;5049570;28;19920;-56
2023/03/12 06:07:07;;;;;;;;;;;;;;;2.58;93.40;100864.00;5055691;28;19921;-57
2023/03/12 06:09:32;;;;;;;;;;;;;;;2.59;94.37;100855.59;5053975;28;19963;-57
2023/03/12 06:11:57;;;;;;;;;;;;;;;2.59;96.02;100865.75;5051968;28;19925;-57
2023/03/12 06:14:22;;;;;;;;;;;;;;;2.57;96.25;100863.16;5049639;28;20321;-56
2023/03/12 06:16:48;;;;;;;;;;;;;;;2.58;97.28;100859.81;5054814;28;19928;-57
2023/03/12 06:19:13;;;;;;;;;;;;;;;2.59;96.92;100869.19;5052063;28;19921;-56
2023/03/12 06:21:38;;;;;;;;;;;;;;;2.58;98.33;100869.97;5052299;28;19916;-56
2023/03/12 06:24:04;;;;;;;;;;;;;;;2.59;98.82;100871.72;5053030;28;19979;-57
2023/03/12 06:26:29;;;;;;;;;;;;;;;2.59;98.79;100871.72;5047291;28;19925;-57
2023/03/12 06:28:55;;;;;;;;;;;;;;;2.60;99.77;100863.31;5058250;28;19960;-55
2023/03/12 06:31:21;;;;;;;;;;;;;;;2.60;100.00;100855.69;5054926;28;20067;-56
2023/03/12 06:33:46;;;;;;;;;;;;;;;2.60;100.00;100852.28;5051083;28;19925;-56
2023/03/12 06:36:12;;;;;;;;;;;;;;;2.62;100.00;100849.06;5048831;28;19928;-57
2023/03/12 06:38:37;;;;;;;;;;;;;;;2.61;100.00;100847.31;5053696;28;19920;-57
2023/03/12 06:41:04;;;;;;;;;;;;;;;2.60;100.00;100842.13;5044723;28;20753;-56
2023/03/12 06:43:30;;;;;;;;;;;;;;;2.59;100.00;100848.88;5053821;28;19925;-56
2023/03/12 06:45:56;;;;;;;;;;;;;;;2.55;100.00;100841.88;5051836;28;19928;-56
2023/03/12 06:48:22;;;;;;;;;;;;;;;2.57;100.00;100839.41;5053719;28;20441;-56
2023/03/12 06:50:47;;;;;;;;;;;;;;;2.56;100.00;100840.22;5047700;28;19921;-56
2023/03/12 06:53:13;;;;;;;;;;;;;;;2.58;100.00;100833.56;5052091;28;19929;-56
2023/03/12 06:55:38;;;;;;;;;;;;;;;2.60;100.00;100819.28;5053922;28;19929;-56
2023/03/12 06:58:03;;;;;;;;;;;;;;;2.62;100.00;100821.16;5052205;28;19921;-56
2023/03/12 07:00:29;;;;;;;;;;;;;;;2.62;100.00;100816.06;5048377;28;19925;-56
2023/03/12 07:02:55;;;;;;;;;;;;;;;2.65;100.00;100811.16;5048700;28;20433;-56
2023/03/12 07:05:20;;;;;;;;;;;;;;;2.67;100.00;100816.34;5048652;28;20019;-56
2023/03/12 07:07:45;;;;;;;;;;;;;;;2.71;100.00;100810.63;5047861;28;19921;-56
2023/03/12 07:10:11;;;;;;;;;;;;;;;2.75;100.00;100814.25;5044382;28;20377;-56
2023/03/12 07:12:36;;;;;;;;;;;;;;;2.75;100.00;100817.66;5042521;28;19928;-56
2023/03/12 07:15:01;;;;;;;;;;;;;;;2.79;100.00;100816.16;5049488;28;20408;-57
2023/03/12 07:17:27;;;;;;;;;;;;;;;2.78;100.00;100809.31;5039584;28;20393;-59
2023/03/12 07:19:52;;;;;;;;;;;;;;;2.80;100.00;100812.84;5047694;28;19924;-57
2023/03/12 07:22:18;;;;;;;;;;;;;;;2.81;100.00;100807.84;5043223;28;20456;-56
2023/03/12 07:24:43;;;;;;;;;;;;;;;2.86;100.00;100813.22;5043290;28;19916;-56
2023/03/12 07:27:08;;;;;;;;;;;;;;;2.87;100.00;100828.53;5043689;28;20050;-56
2023/03/12 07:29:34;;;;;;;;;;;;;;;2.90;100.00;100812.56;5044556;28;20439;-56
2023/03/12 07:31:59;;;;;;;;;;;;;;;2.87;100.00;100814.97;5044727;28;19921;-56
2023/03/12 07:34:24;;;;;;;;;;;;;;;2.88;100.00;100827.72;5044513;28;20026;-56
2023/03/12 07:36:50;;;;;;;;;;;;;;;2.89;100.00;100819.31;5044831;28;19975;-56
2023/03/12 07:39:15;;;;;;;;;;;;;;;2.89;100.00;100823.53;5041048;28;19928;-56
2023/03/12 07:41:40;;;;;;;;;;;;;;;2.88;100.00;100829.41;5044004;28;19921;-56
2023/03/12 07:44:05;;;;;;;;;;;;;;;2.86;100.00;100821.69;5046687;28;19928;-56
2023/03/12 07:46:31;;;;;;;;;;;;;;;2.87;100.00;100812.41;5046775;28;19924;-56
2023/03/12 07:48:56;;;;;;;;;;;;;;;2.88;100.00;100820.13;5045674;28;19927;-56
2023/03/12 07:51:21;;;;;;;;;;;;;;;2.89;100.00;100816.78;5025941;28;19969;-57
2023/03/12 07:53:47;;;;;;;;;;;;;;;2.94;100.00;100825.56;5048670;28;19978;-57
2023/03/12 07:56:12;;;;;;;;;;;;;;;2.97;100.00;100827.38;5050122;28;19932;-56
2023/03/12 07:58:38;;;;;;;;;;;;;;;2.99;100.00;100830.91;5050690;28;19921;-56
2023/03/12 08:01:03;;;;;;;;;;;;;;;3.03;100.00;100831.94;5050310;28;19936;-56
2023/03/12 08:03:29;;;;;;;;;;;;;;;3.05;100.00;100822.75;5028550;28;20377;-56
2023/03/12 08:05:58;;;;;;;;;;;;;;;3.09;100.00;100827.22;5044929;28;19943;-57
2023/03/12 08:08:24;;;;;;;;;;;;;;;3.14;100.00;100813.09;5051884;28;20460;-57
2023/03/12 08:10:49;;;;;;;;;;;;;;;3.17;100.00;100814.16;5028194;28;19924;-57
2023/03/12 08:13:14;;;;;;;;;;;;;;;3.22;100.00;100812.78;5051997;28;19928;-56
2023/03/12 08:15:40;;;;;;;;;;;;;;;3.28;100.00;100814.78;5045754;28;19931;-60
2023/03/12 08:18:05;;;;;;;;;;;;;;;3.32;100.00;100814.16;5053712;28;19924;-56
2023/03/12 08:20:30;;;;;;;;;;;;;;;3.37;100.00;100816.94;5045359;28;20404;-56
2023/03/12 08:22:56;;;;;;;;;;;;;;;3.43;100.00;100820.72;5051412;28;20320;-56
2023/03/12 08:25:23;;;;;;;;;;;;;;;3.48;100.00;100813.34;5047297;28;20000;-56
2023/03/12 08:27:48;;;;;;;;;;;;;;;3.52;100.00;100824.53;5054127;28;19921;-55
2023/03/12 08:30:14;;;;;;;;;;;;;;;3.57;100.00;100823.13;5046438;28;19928;-56
2023/03/12 08:32:39;;;;;;;;;;;;;;;3.61;100.00;100814.91;5055836;28;19916;-56
2023/03/12 08:35:04;;;;;;;;;;;;;;;3.64;100.00;100828.66;5052445;28;19951;-56
2023/03/12 08:37:30;;;;;;;;;;;;;;;3.67;100.00;100826.28;5038238;28;19924;-57
2023/03/12 08:39:56;;;;;;;;;;;;;;;3.74;100.00;100838.53;5046575;28;19978;-57
2023/03/12 08:42:21;;;;;;;;;;;;;;;3.79;100.00;100828.63;5044834;28;20007;-57
2023/03/12 08:44:47;;;;;;;;;;;;;;;3.83;100.00;100837.31;5047657;28;20503;-57
2023/03/12 08:47:12;;;;;;;;;;;;;;;3.88;100.00;100840.94;5050116;28;19931;-57
2023/03/12 08:49:37;;;;;;;;;;;;;;;3.94;100.00;100843.81;5047852;28;20011;-57
2023/03/12 08:52:03;;;;;;;;;;;;;;;3.99;100.00;100843.28;5046067;28;19917;-57
2023/03/12 08:54:28;;;;;;;;;;;;;;;4.07;100.00;100845.38;5046057;28;19928;-56
2023/03/12 08:56:53;;;;;;;;;;;;;;;4.11;100.00;100843.06;5050216;28;20302;-56
2023/03/12 08:59:19;;;;;;;;;;;;;;;4.18;100.00;100847.69;5048735;28;20305;-58
2023/03/12 09:01:45;;;;;;;;;;;;;;;4.27;100.00;100853.28;5051178;28;19925;-61
2023/03/12 09:04:10;;;;;;;;;;;;;;;4.36;100.00;100855.41;5047016;28;21815;-59
2023/03/12 09:06:35;;;;;;;;;;;;;;;4.43;100.00;100848.97;5047014;28;19978;-60
2023/03/12 09:09:04;;;;;;;;;;;;;;;4.51;100.00;100848.59;5050280;28;20562;-60
2023/03/12 09:11:32;;;;;;;;;;;;;;;4.59;100.00;100851.53;5044521;28;20019;-60
2023/03/12 09:13:58;;;;;;;;;;;;;;;4.69;100.00;100850.34;5048695;28;19917;-61
2023/03/12 09:16:23;;;;;;;;;;;;;;;4.77;100.00;100843.97;5044818;28;19931;-61
2023/03/12 09:18:49;;;;;;;;;;;;;;;4.85;100.00;100847.75;5052000;28;19966;-60
2023/03/12 09:21:14;;;;;;;;;;;;;;;4.95;100.00;100846.56;5050731;28;20324;-60
2023/03/12 09:23:39;;;;;;;;;;;;;;;5.08;100.00;100841.28;5051226;28;19921;-61
2023/03/12 09:26:07;;;;;;;;;;;;;;;5.20;100.00;100828.25;5052079;28;19912;-61
2023/03/12 09:28:32;;;;;;;;;;;;;;;5.31;100.00;100832.22;5050994;28;19946;-61
2023/03/12 09:31:00;;;;;;;;;;;;;;;5.44;100.00;100837.09;5050227;28;20320;-60
2023/03/12 09:33:25;;;;;;;;;;;;;;;5.58;100.00;100841.19;5048913;28;19966;-60
2023/03/12 09:35:57;;;;;;;;;;;;;;;5.70;100.00;100842.56;5050954;28;20300;-61
2023/03/12 09:38:23;;;;;;;;;;;;;;;5.82;100.00;100836.34;5051013;28;19912;-60
2023/03/12 09:40:49;;;;;;;;;;;;;;;5.97;100.00;100836.22;5050868;28;19916;-61
2023/03/12 09:43:25;;;;;;;;;;;;;;;6.10;100.00;100837.66;5050990;28;20027;-61
2023/03/12 09:45:50;;;;;;;;;;;;;;;6.22;100.00;100843.31;5050822;28;19912;-61
2023/03/12 09:48:17;;;;;;;;;;;;;;;6.36;100.00;100839.69;5046263;28;19947;-61
2023/03/12 09:50:46;;;;;;;;;;;;;;;6.47;100.00;100844.41;5040236;28;19912;-60
2023/03/12 09:53:14;;;;;;;;;;;;;;;6.60;100.00;100851.81;5047608;28;19920;-60
2023/03/12 09:55:41;;;;;;;;;;;;;;;6.76;100.00;100863.59;5045359;28;19924;-61
2023/03/12 09:58:16;;;;;;;;;;;;;;;6.89;100.00;100860.75;5044170;28;19921;-61
2023/03/12 10:00:41;;;;;;;;;;;;;;;7.04;100.00;100860.50;5043683;28;20377;-63
2023/03/12 10:03:30;;;;;;;;;;;;;;;7.18;100.00;100860.28;5047880;28;19970;-61
2023/03/12 10:06:21;;;;;;;;;;;;;;;7.33;100.00;100866.84;5041226;28;19996;-62
2023/03/12 10:08:50;;;;;;;;;;;;;;;7.35;100.00;100863.53;5041862;28;20019;-61
2023/03/12 10:11:24;;;;;;;;;;;;;;;7.40;100.00;100859.50;5045572;28;20387;-61
2023/03/12 10:14:02;;;;;;;;;;;;;;;7.48;100.00;100863.22;5041893;28;19925;-61
2023/03/12 10:16:34;;;;;;;;;;;;;;;7.59;100.00;100867.91;5045560;28;19916;-61
2023/03/12 10:19:19;;;;;;;;;;;;;;;7.64;100.00;100866.38;5046217;28;20289;-61
2023/03/12 10:22:06;;;;;;;;;;;;;;;7.68;100.00;100860.59;5044722;28;20348;-61
2023/03/12 10:24:46;;;;;;;;;;;;;;;7.77;100.00;100856.72;5044316;28;19917;-61
2023/03/12 10:27:13;;;;;;;;;;;;;;;7.87;100.00;100847.69;5047012;28;19920;-60
2023/03/12 10:29:40;;;;;;;;;;;;;;;7.94;100.00;100844.53;5050642;28;19916;-62
2023/03/12 10:32:24;;;;;;;;;;;;;;;7.97;100.00;100861.72;5048604;28;20550;-60
2023/03/12 10:34:51;;;;;;;;;;;;;;;7.99;100.00;100858.41;5039831;28;19927;-61
2023/03/12 10:37:22;;;;;;;;;;;;;;;8.05;100.00;100856.06;5047187;28;20008;-62
2023/03/12 10:39:48;;;;;;;;;;;;;;;8.07;100.00;100863.84;5050490;28;20415;-61
2023/03/12 10:42:16;;;;;;;;;;;;;;;8.09;100.00;100851.94;5047932;28;20023;-60
2023/03/12 10:44:41;;;;;;;;;;;;;;;8.14;100.00;100855.56;5043222;28;20031;-61
2023/03/12 10:47:06;;;;;;;;;;;;;;;8.20;100.00;100855.78;5049559;28;20448;-61
2023/03/12 10:49:33;;;;;;;;;;;;;;;8.23;100.00;100845.66;5047070;28;19920;-60
2023/03/12 10:52:01;;;;;;;;;;;;;;;8.27;100.00;100852.63;5045555;28;20003;-60
2023/03/12 10:54:32;;;;;;;;;;;;;;;8.30;100.00;100849.31;5046619;28;20389;-60
2023/03/12 10:56:57;;;;;;;;;;;;;;;8.31;100.00;100851.03;5045943;28;19984;-61
2023/03/12 10:59:28;;;;;;;;;;;;;;;8.31;100.00;100859.63;5046754;28;19959;-61
2023/03/12 11:01:53;;;;;;;;;;;;;;;8.32;100.00;100863.94;5046391;28;19917;-61
2023/03/12 11:04:19;;;;;;;;;;;;;;;8.34;100.00;100863.97;5046008;28;20296;-60
2023/03/12 11:07:02;;;;;;;;;;;;;;;8.39;100.00;100866.75;5049722;28;19924;-59
2023/03/12 11:09:28;;;;;;;;;;;;;;;8.42;100.00;100861.72;5045882;28;19979;-61
2023/03/12 11:11:53;;;;;;;;;;;;;;;8.47;100.00;100875.59;5051376;28;20928;-60
2023/03/12 11:14:20;;;;;;;;;;;;;;;8.50;100.00;100876.59;5046529;28;19947;-60
2023/03/12 11:16:45;;;;;;;;;;;;;;;8.56;100.00;100866.56;5042725;28;19924;-61
2023/03/12 11:19:24;;;;;;;;;;;;;;;8.60;100.00;100862.38;5048149;28;19998;-57
2023/03/12 11:21:54;;;;;;;;;;;;;;;8.61;100.00;100874.38;5048574;28;19924;-60
2023/03/12 11:24:19;;;;;;;;;;;;;;;8.63;100.00;100877.03;5045397;28;19925;-60
2023/03/12 11:26:57;;;;;;;;;;;;;;;8.68;100.00;100872.94;5050952;28;20398;-60
2023/03/12 11:29:25;;;;;;;;;;;;;;;8.73;100.00;100871.38;5037384;28;19971;-60
2023/03/12 11:31:59;;;;;;;;;;;;;;;8.77;100.00;100873.25;5040561;28;20433;-60
2023/03/12 11:34:30;;;;;;;;;;;;;;;8.81;100.00;100877.69;5043820;28;19920;-60
2023/03/12 11:37:07;;;;;;;;;;;;;;;8.83;100.00;100886.28;5038916;28;20340;-60
2023/03/12 11:39:48;;;;;;;;;;;;;;;8.87;100.00;100883.03;5037945;28;19940;-60
2023/03/12 11:42:19;;;;;;;;;;;;;;;8.95;100.00;100881.59;5037663;28;19927;-60
2023/03/12 11:44:47;;;;;;;;;;;;;;;8.99;100.00;100877.44;5039297;28;20395;-60
2023/03/12 11:47:30;;;;;;;;;;;;;;;9.00;100.00;100880.06;5038329;28;20411;-61
2023/03/12 11:50:07;;;;;;;;;;;;;;;9.02;100.00;100877.53;5038406;28;20673;-64
2023/03/12 11:52:59;;;;;;;;;;;;;;;9.17;100.00;100877.22;5036191;28;19921;-64
2023/03/12 11:55:37;;;;;;;;;;;;;;;9.45;100.00;100869.59;5017106;28;21588;-60
2023/03/12 11:58:02;;;;;;;;;;;;;;;9.77;100.00;100872.31;5039139;28;20366;-60
2023/03/12 12:00:33;;;;;;;;;;;;;;;9.92;100.00;100865.09;5039951;28;19935;-61
2023/03/12 12:02:58;;;;;;;;;;;;;;;10.01;100.00;100865.38;5042481;28;19952;-62
2023/03/12 12:05:30;;;;;;;;;;;;;;;10.16;100.00;100862.38;5035526;28;19948;-60
2023/03/12 12:07:58;;;;;;;;;;;;;;;10.42;100.00;100845.16;5044865;28;20119;-60
2023/03/12 12:10:27;;;;;;;;;;;;;;;10.70;100.00;100839.97;5045345;28;19920;-61
2023/03/12 12:13:03;;;;;;;;;;;;;;;10.94;100.00;100832.03;5037903;28;19920;-61
2023/03/12 12:15:34;;;;;;;;;;;;;;;11.10;100.00;100827.25;5036498;28;19928;-61
2023/03/12 12:18:18;;;;;;;;;;;;;;;11.16;100.00;100823.19;5038640;28;20003;-61
2023/03/12 12:20:52;;;;;;;;;;;;;;;11.26;100.00;100831.97;5045571;28;19944;-60
2023/03/12 12:23:27;;;;;;;;;;;;;;;11.33;100.00;100827.84;5044042;28;20467;-60
2023/03/12 12:25:52;;;;;;;;;;;;;;;11.40;100.00;100819.44;5034048;28;19928;-61
2023/03/12 12:28:31;;;;;;;;;;;;;;;11.40;100.00;100819.44;5049179;28;20343;-61
2023/03/12 12:31:17;;;;;;;;;;;;;;;11.33;99.83;100807.25;5046564;28;20032;-60
2023/03/12 12:33:49;;;;;;;;;;;;;;;11.25;100.00;100797.66;5042361;28;19920;-60
2023/03/12 12:36:15;;;;;;;;;;;;;;;11.19;100.00;100800.06;5042285;28;20015;-60
2023/03/12 12:38:55;;;;;;;;;;;;;;;11.16;99.97;100793.97;5043492;28;20007;-61